.
WxDataArchive / Data Records for 2010-01-03
2010-01-02 January 2010 2010-01-04

Data Records for Sunday, 03 January 2010

Time	Temp	Chill	HIndex	Humid	Dewpt	 Wind 	HiWind	WindDir	Rain 	Barom 
-----	----	-----	------	-----	-----	------	------	-------	-----	----- 
00:00	6.5	6.5	6.5	80	1.7	0	1	270	0.00	30.380 
00:05	6.3	6.3	6.3	80	1.5	0	0	---	0.00	30.380 
00:10	6.1	6.1	6.1	80	1.3	0	0	---	0.00	30.380 
00:15	6.0	6.0	6.0	80	1.2	0	1	270	0.00	30.380 
00:20	6.0	6.0	6.0	80	1.2	0	1	270	0.00	30.380 
00:25	6.0	6.0	6.0	81	1.4	0	0	---	0.00	30.380 
00:30	5.8	5.8	5.8	81	1.3	0	1	270	0.00	30.381 
00:35	5.8	5.8	5.8	81	1.3	0	1	270	0.00	30.381 
00:40	5.8	5.8	5.8	81	1.3	0	1	270	0.00	30.381 
00:45	6.0	6.0	6.0	82	1.7	0	1	270	0.00	30.375 
00:50	6.0	6.0	6.0	82	1.7	0	1	270	0.00	30.375 
00:55	6.1	6.1	6.1	82	1.8	0	1	270	0.00	30.375 
01:00	6.3	6.3	6.3	82	2.0	0	1	270	0.00	30.376 
01:05	6.3	6.3	6.3	82	2.0	0	1	270	0.00	30.376 
01:10	6.5	6.5	6.5	82	2.2	0	1	270	0.00	30.376 
01:15	6.7	6.7	6.7	81	2.1	0	1	270	0.00	30.369 
01:20	6.7	6.7	6.7	81	2.1	0	2	270	0.00	30.369 
01:25	6.7	6.7	6.7	81	2.1	0	1	270	0.00	30.369 
01:30	6.7	6.7	6.7	81	2.1	0	1	270	0.00	30.364 
01:35	6.9	6.9	6.9	81	2.3	0	2	270	0.00	30.364 
01:40	6.9	6.9	6.9	81	2.3	0	1	270	0.00	30.364 
01:45	6.9	6.9	6.9	80	2.1	0	1	270	0.00	30.367 
01:50	6.9	6.9	6.9	80	2.1	0	2	270	0.00	30.367 
01:55	6.9	6.9	6.9	79	1.8	0	2	270	0.00	30.367 
02:00	6.9	6.9	6.9	79	1.8	0	2	270	0.00	30.375 
02:05	6.7	6.7	6.7	79	1.6	0	1	315	0.00	30.375 
02:10	6.7	6.7	6.7	78	1.3	0	1	315	0.00	30.375 
02:15	6.5	6.5	6.5	78	1.1	0	1	315	0.00	30.377 
02:20	6.3	6.3	6.3	78	0.9	0	1	315	0.00	30.377 
02:25	6.1	6.1	6.1	77	0.5	0	1	315	0.00	30.377 
02:30	6.0	6.0	6.0	77	0.4	0	1	315	0.00	30.380 
02:35	5.8	5.8	5.8	77	0.2	0	1	315	0.00	30.380 
02:40	5.6	5.6	5.6	77	-0.0	0	1	315	0.00	30.380 
02:45	5.4	5.4	5.4	78	0.1	0	1	315	0.00	30.384 
02:50	5.4	5.4	5.4	78	0.1	0	1	315	0.00	30.384 
02:55	5.2	5.2	5.2	78	-0.1	0	0	---	0.00	30.384 
03:00	5.0	5.0	5.0	77	-0.6	0	1	315	0.00	30.385 
03:05	4.8	4.8	4.8	77	-0.8	0	1	315	0.00	30.385 
03:10	4.7	4.7	4.7	78	-0.6	0	1	315	0.00	30.385 
03:15	4.7	4.7	4.7	78	-0.6	0	1	315	0.00	30.388 
03:20	4.7	4.7	4.7	77	-0.9	0	1	315	0.00	30.388 
03:25	4.5	4.5	4.5	77	-1.1	0	0	---	0.00	30.388 
03:30	4.5	4.5	4.5	77	-1.1	0	1	315	0.00	30.382 
03:35	4.5	4.5	4.5	77	-1.1	0	1	315	0.00	30.382 
03:40	4.3	4.3	4.3	77	-1.3	0	1	315	0.00	30.382 
03:45	4.5	4.5	4.5	77	-1.1	0	1	315	0.00	30.382 
03:50	4.5	4.5	4.5	77	-1.1	0	2	315	0.00	30.382 
03:55	4.5	4.5	4.5	77	-1.1	0	1	315	0.00	30.382 
04:00	4.5	4.5	4.5	77	-1.1	0	2	315	0.00	30.387 
04:05	4.5	4.5	4.5	77	-1.1	0	2	315	0.00	30.387 
04:10	4.5	4.5	4.5	77	-1.1	0	1	248	0.00	30.387 
04:15	4.5	4.5	4.5	76	-1.4	0	2	248	0.00	30.389 
04:20	4.7	4.7	4.7	76	-1.2	0	2	248	0.00	30.389 
04:25	4.7	4.7	4.7	76	-1.2	0	1	248	0.00	30.389 
04:30	4.7	4.7	4.7	75	-1.4	0	1	248	0.00	30.393 
04:35	4.7	4.7	4.7	75	-1.4	0	2	248	0.00	30.393 
04:40	4.7	4.7	4.7	75	-1.4	0	1	248	0.00	30.393 
04:45	4.5	4.5	4.5	74	-1.9	0	1	248	0.00	30.396 
04:50	4.3	4.3	4.3	74	-2.1	0	1	248	0.00	30.396 
04:55	4.3	4.3	4.3	74	-2.1	0	2	248	0.00	30.396 
05:00	4.5	4.5	4.5	74	-1.9	0	1	248	0.00	30.390 
05:05	4.5	4.5	4.5	74	-1.9	0	1	248	0.00	30.390 
05:10	4.5	4.5	4.5	74	-1.9	0	1	248	0.00	30.390 
05:15	4.7	4.7	4.7	74	-1.7	0	1	248	0.00	30.387 
05:20	4.7	4.7	4.7	74	-1.7	0	1	248	0.00	30.387 
05:25	4.7	4.7	4.7	74	-1.7	0	1	248	0.00	30.387 
05:30	4.7	4.7	4.7	74	-1.7	0	1	248	0.00	30.386 
05:35	4.5	4.5	4.5	74	-1.9	0	1	248	0.00	30.386 
05:40	4.5	4.5	4.5	73	-2.2	0	1	248	0.00	30.386 
05:45	4.5	4.5	4.5	73	-2.2	0	1	248	0.00	30.393 
05:50	4.3	4.3	4.3	73	-2.4	0	1	248	0.00	30.393 
05:55	4.1	4.1	4.1	73	-2.6	0	1	248	0.00	30.393 
06:00	4.1	4.1	4.1	73	-2.6	0	1	248	0.00	30.386 
06:05	3.9	3.9	3.9	74	-2.5	0	1	248	0.00	30.386 
06:10	3.7	3.7	3.7	74	-2.7	0	1	248	0.00	30.386 
06:15	3.5	3.5	3.5	74	-2.9	0	1	248	0.00	30.382 
06:20	3.5	3.5	3.5	74	-2.9	0	1	248	0.00	30.382 
06:25	3.4	3.4	3.4	74	-3.0	0	1	248	0.00	30.382 
06:30	3.2	3.2	3.2	74	-3.2	0	1	248	0.00	30.387 
06:35	3.0	3.0	3.0	75	-3.1	0	1	248	0.00	30.387 
06:40	2.8	2.8	2.8	75	-3.3	0	1	248	0.00	30.387 
06:45	2.8	2.8	2.8	75	-3.3	0	1	248	0.00	30.389 
06:50	2.8	2.8	2.8	75	-3.3	0	1	248	0.00	30.389 
06:55	2.6	2.6	2.6	76	-3.2	0	2	248	0.00	30.389 
07:00	2.6	2.6	2.6	76	-3.2	0	2	248	0.00	30.390 
07:05	2.6	2.6	2.6	76	-3.2	0	1	248	0.00	30.390 
07:10	2.4	2.4	2.4	76	-3.4	0	1	248	0.00	30.390 
07:15	2.4	2.4	2.4	76	-3.4	0	1	248	0.00	30.396 
07:20	2.2	2.2	2.2	76	-3.6	0	1	248	0.00	30.396 
07:25	2.2	2.2	2.2	76	-3.6	0	1	248	0.00	30.396 
07:30	2.2	2.2	2.2	76	-3.6	0	1	248	0.00	30.394 
07:35	2.0	2.0	2.0	76	-3.8	0	1	248	0.00	30.394 
07:40	2.0	2.0	2.0	77	-3.5	0	1	248	0.00	30.394 
07:45	2.2	2.2	2.2	77	-3.3	0	1	248	0.00	30.393 
07:50	2.2	2.2	2.2	77	-3.3	0	1	248	0.00	30.393 
07:55	2.2	2.2	2.2	77	-3.3	0	2	248	0.00	30.393 
08:00	2.2	2.2	2.2	77	-3.3	1	2	248	0.00	30.393 
08:05	2.4	2.4	2.4	77	-3.1	0	2	248	0.00	30.393 
08:10	2.4	2.4	2.4	77	-3.1	1	2	248	0.00	30.393 
08:15	2.6	2.6	2.6	77	-2.9	1	2	248	0.00	30.395 
08:20	2.6	2.6	2.6	77	-2.9	1	2	248	0.00	30.395 
08:25	2.6	2.6	2.6	77	-2.9	0	2	248	0.00	30.395 
08:30	2.8	2.8	2.8	77	-2.7	0	1	315	0.00	30.402 
08:35	2.8	2.8	2.8	77	-2.7	1	2	315	0.00	30.402 
08:40	3.2	3.2	3.2	77	-2.4	1	2	315	0.00	30.402 
08:45	3.4	3.4	3.4	77	-2.2	1	2	248	0.00	30.404 
08:50	3.7	3.7	3.7	77	-1.9	0	3	248	0.00	30.404 
08:55	4.1	4.1	4.1	77	-1.5	1	3	248	0.00	30.404 
09:00	4.5	4.5	4.5	76	-1.4	1	2	270	0.00	30.400 
09:05	4.8	4.8	4.8	76	-1.1	1	2	270	0.00	30.400 
09:10	5.2	5.2	5.2	76	-0.7	1	4	270	0.00	30.400 
09:15	5.6	5.6	5.6	76	-0.3	1	4	248	0.00	30.400 
09:20	6.0	6.0	6.0	75	-0.2	1	4	315	0.00	30.400 
09:25	6.3	6.3	6.3	75	0.1	2	4	270	0.00	30.400 
09:30	6.7	6.7	6.7	75	0.5	1	3	315	0.00	30.400 
09:35	7.2	7.2	7.2	75	1.0	1	6	248	0.00	30.400 
09:40	7.4	7.4	7.4	74	0.9	2	4	270	0.00	30.400 
09:45	7.7	7.7	7.7	73	0.9	1	3	292	0.00	30.392 
09:50	7.9	7.9	7.9	73	1.1	1	3	292	0.00	30.392 
09:55	8.1	8.1	8.1	73	1.3	1	5	248	0.00	30.392 
10:00	8.4	8.4	8.4	73	1.6	1	3	248	0.00	30.393 
10:05	8.6	8.6	8.6	73	1.8	2	4	270	0.00	30.393 
10:10	8.8	8.8	8.8	73	1.9	2	4	248	0.00	30.393 
10:15	9.0	9.0	9.0	72	1.8	1	4	315	0.00	30.387 
10:20	9.3	9.3	9.3	72	2.1	1	5	315	0.00	30.387 
10:25	9.5	9.5	9.5	72	2.3	2	4	338	0.00	30.387 
10:30	9.9	9.9	9.9	72	2.7	1	4	338	0.00	30.389 
10:35	10.2	10.2	10.2	71	2.7	1	5	315	0.00	30.389 
10:40	10.4	10.4	10.4	71	2.9	2	4	338	0.00	30.389 
10:45	10.9	10.9	10.9	71	3.4	1	3	338	0.00	30.393 
10:50	11.1	11.1	11.1	70	3.3	1	3	338	0.00	30.393 
10:55	11.4	11.4	11.4	70	3.5	1	4	338	0.00	30.393 
11:00	11.9	11.9	11.9	70	4.0	1	4	338	0.00	30.384 
11:05	12.4	12.4	12.4	70	4.5	1	4	338	0.00	30.384 
11:10	12.8	12.8	12.8	70	4.9	1	2	248	0.00	30.384 
11:15	13.3	13.3	13.3	69	5.1	1	3	292	0.00	30.382 
11:20	13.6	13.6	13.6	68	5.0	2	5	248	0.00	30.382 
11:25	14.0	14.0	14.0	68	5.4	1	3	315	0.00	30.382 
11:30	14.1	14.1	14.1	67	5.2	2	6	292	0.00	30.371 
11:35	14.3	14.3	14.3	67	5.4	1	4	315	0.00	30.371 
11:40	14.6	14.6	14.6	67	5.7	1	5	270	0.00	30.371 
11:45	14.8	14.8	14.8	66	5.5	2	6	270	0.00	30.364 
11:50	14.8	14.8	14.8	66	5.5	1	4	248	0.00	30.364 
11:55	15.1	15.1	15.1	65	5.5	1	4	338	0.00	30.364 
12:00	15.1	15.1	15.1	65	5.5	2	3	315	0.00	30.360 
12:05	15.4	15.4	15.4	65	5.8	1	4	338	0.00	30.360 
12:10	15.9	15.9	15.9	65	6.2	1	4	315	0.00	30.360 
12:15	16.2	16.2	16.2	65	6.5	1	4	292	0.00	30.351 
12:20	16.4	16.4	16.4	64	6.4	2	5	315	0.00	30.351 
12:25	16.4	16.4	16.4	64	6.4	2	6	292	0.00	30.351 
12:30	16.5	16.5	16.5	64	6.5	2	4	270	0.00	30.349 
12:35	16.9	16.9	16.9	64	6.9	1	4	338	0.00	30.349 
12:40	17.2	17.2	17.2	63	6.8	1	4	338	0.00	30.349 
12:45	17.3	17.3	17.3	63	6.9	2	6	270	0.00	30.343 
12:50	17.5	17.5	17.5	62	6.7	2	5	338	0.00	30.343 
12:55	17.5	17.5	17.5	62	6.7	2	5	315	0.00	30.343 
13:00	17.5	17.5	17.5	62	6.7	1	5	315	0.00	30.332 
13:05	18.0	18.0	18.0	62	7.2	1	4	338	0.00	30.332 
13:10	18.1	18.1	18.1	61	6.9	2	6	270	0.00	30.332 
13:15	18.3	18.3	18.3	62	7.5	1	4	248	0.00	30.324 
13:20	18.6	18.6	18.6	61	7.4	2	6	270	0.00	30.324 
13:25	18.8	18.8	18.8	61	7.6	3	7	270	0.00	30.324 
13:30	18.8	18.8	18.8	61	7.6	3	7	270	0.00	30.313 
13:35	18.9	18.9	18.9	61	7.7	3	6	270	0.00	30.313 
13:40	18.9	18.9	18.9	60	7.3	2	7	315	0.00	30.313 
13:45	19.1	19.1	19.1	61	7.9	2	6	315	0.00	30.309 
13:50	19.2	19.2	19.2	60	7.6	2	5	270	0.00	30.309 
13:55	19.4	19.4	19.4	60	7.8	2	5	292	0.00	30.309 
14:00	19.7	19.7	19.7	60	8.1	2	5	270	0.00	30.306 
14:05	19.7	19.7	19.7	60	8.1	2	7	270	0.00	30.306 
14:10	19.9	19.9	19.9	61	8.7	2	7	338	0.00	30.306 
14:15	20.0	20.0	20.0	60	8.4	2	5	338	0.00	30.304 
14:20	20.5	20.5	20.5	61	9.2	2	4	248	0.00	30.304 
14:25	20.6	20.6	20.6	60	8.9	2	6	248	0.00	30.304 
14:30	20.5	20.5	20.5	60	8.9	3	5	315	0.00	30.298 
14:35	20.5	20.5	20.5	61	9.2	2	5	270	0.00	30.298 
14:40	20.5	20.5	20.5	61	9.2	3	7	270	0.00	30.298 
14:45	20.6	20.6	20.6	61	9.3	3	7	292	0.00	30.297 
14:50	20.6	20.6	20.6	61	9.3	3	6	270	0.00	30.297 
14:55	20.8	20.8	20.8	61	9.5	3	6	270	0.00	30.297 
15:00	20.8	20.8	20.8	61	9.5	3	5	270	0.00	30.289 
15:05	20.8	20.8	20.8	61	9.5	3	5	270	0.00	30.289 
15:10	21.1	21.1	21.1	62	10.1	2	5	270	0.00	30.289 
15:15	21.1	21.1	21.1	61	9.8	1	5	270	0.00	30.297 
15:20	21.0	21.0	21.0	61	9.7	2	7	315	0.00	30.297 
15:25	21.1	21.1	21.1	62	10.1	2	7	270	0.00	30.297 
15:30	21.1	21.1	21.1	62	10.1	2	6	315	0.00	30.298 
15:35	21.1	21.1	21.1	62	10.1	2	5	338	0.00	30.298 
15:40	21.3	21.3	21.3	62	10.3	2	7	270	0.00	30.298 
15:45	21.1	21.1	21.1	62	10.1	2	6	270	0.00	30.299 
15:50	20.8	20.8	20.8	62	9.9	2	6	315	0.00	30.299 
15:55	20.6	20.6	20.6	63	10.0	2	4	315	0.00	30.299 
16:00	20.6	20.6	20.6	63	10.0	2	7	270	0.00	30.300 
16:05	20.5	20.5	20.5	64	10.3	3	5	270	0.00	30.300 
16:10	20.5	20.5	20.5	64	10.3	2	5	270	0.00	30.300 
16:15	20.3	20.3	20.3	65	10.4	2	6	270	0.00	30.305 
16:20	20.3	20.3	20.3	65	10.4	3	5	315	0.00	30.305 
16:25	20.0	20.0	20.0	65	10.2	2	5	248	0.00	30.305 
16:30	20.0	20.0	20.0	65	10.2	2	5	270	0.00	30.305 
16:35	19.9	19.9	19.9	66	10.4	2	4	292	0.00	30.305 
16:40	19.9	19.9	19.9	66	10.4	2	4	270	0.00	30.305 
16:45	19.7	19.7	19.7	67	10.5	2	4	270	0.00	30.306 
16:50	19.4	19.4	19.4	67	10.3	2	5	270	0.00	30.306 
16:55	19.2	19.2	19.2	68	10.4	2	5	270	0.00	30.306 
17:00	18.9	18.9	18.9	69	10.4	1	3	270	0.00	30.302 
17:05	18.8	18.8	18.8	69	10.3	2	5	270	0.00	30.302 
17:10	18.6	18.6	18.6	70	10.5	2	5	270	0.00	30.302 
17:15	18.4	18.4	18.4	70	10.3	2	4	270	0.00	30.306 
17:20	18.4	18.4	18.4	71	10.6	2	6	270	0.00	30.306 
17:25	18.3	18.3	18.3	71	10.5	2	4	270	0.00	30.306 
17:30	18.1	18.1	18.1	72	10.6	2	3	270	0.00	30.312 
17:35	18.0	18.0	18.0	72	10.5	1	5	270	0.00	30.312 
17:40	17.8	17.8	17.8	73	10.6	1	3	270	0.00	30.312 
17:45	17.7	17.7	17.7	73	10.5	2	4	248	0.00	30.308 
17:50	17.7	17.7	17.7	73	10.5	2	5	270	0.00	30.308 
17:55	17.5	17.5	17.5	74	10.7	2	5	270	0.00	30.308 
18:00	17.3	17.3	17.3	74	10.5	2	4	270	0.00	30.315 
18:05	17.2	17.2	17.2	74	10.4	1	3	315	0.00	30.315 
18:10	17.2	17.2	17.2	75	10.7	2	4	248	0.00	30.315 
18:15	16.9	16.9	16.9	75	10.4	1	5	248	0.00	30.316 
18:20	16.9	16.9	16.9	76	10.7	1	3	270	0.00	30.316 
18:25	16.7	16.7	16.7	76	10.5	1	3	270	0.00	30.316 
18:30	16.5	16.5	16.5	76	10.3	1	3	270	0.00	30.312 
18:35	16.4	16.4	16.4	77	10.5	1	3	270	0.00	30.312 
18:40	16.2	16.2	16.2	77	10.3	1	3	248	0.00	30.312 
18:45	16.2	16.2	16.2	77	10.3	1	2	248	0.00	30.309 
18:50	16.1	16.1	16.1	77	10.2	1	3	248	0.00	30.309 
18:55	15.9	15.9	15.9	78	10.3	1	4	248	0.00	30.309 
19:00	15.7	15.7	15.7	78	10.1	1	4	248	0.00	30.306 
19:05	15.6	15.6	15.6	78	10.0	1	3	270	0.00	30.306 
19:10	15.4	15.4	15.4	78	9.8	1	2	270	0.00	30.306 
19:15	15.4	15.4	15.4	79	10.1	1	3	270	0.00	30.306 
19:20	15.2	15.2	15.2	79	9.9	1	2	270	0.00	30.306 
19:25	15.1	15.1	15.1	79	9.8	1	2	270	0.00	30.306 
19:30	15.1	15.1	15.1	80	10.1	1	2	270	0.00	30.305 
19:35	15.1	15.1	15.1	80	10.1	1	3	270	0.00	30.305 
19:40	14.9	14.9	14.9	81	10.1	1	2	270	0.00	30.305 
19:45	14.9	14.9	14.9	81	10.1	1	3	270	0.00	30.304 
19:50	14.9	14.9	14.9	81	10.1	1	3	270	0.00	30.304 
19:55	14.9	14.9	14.9	81	10.1	1	2	270	0.00	30.304 
20:00	14.9	14.9	14.9	82	10.4	1	2	270	0.00	30.304 
20:05	14.9	14.9	14.9	82	10.4	1	3	270	0.00	30.304 
20:10	15.1	15.1	15.1	83	10.9	1	4	270	0.00	30.304 
20:15	15.4	15.4	15.4	83	11.2	2	5	270	0.00	30.301 
20:20	15.4	15.4	15.4	83	11.2	1	4	248	0.00	30.301 
20:25	15.4	15.4	15.4	83	11.2	1	3	270	0.00	30.301 
20:30	15.4	15.4	15.4	83	11.2	1	3	292	0.00	30.302 
20:35	15.2	15.2	15.2	83	11.0	1	4	248	0.00	30.302 
20:40	15.2	15.2	15.2	83	11.0	1	2	248	0.00	30.302 
20:45	15.4	15.4	15.4	84	11.4	1	4	270	0.00	30.298 
20:50	15.4	15.4	15.4	84	11.4	1	3	315	0.00	30.298 
20:55	15.4	15.4	15.4	84	11.4	1	3	315	0.00	30.298 
21:00	15.4	15.4	15.4	83	11.2	0	2	315	0.00	30.290 
21:05	15.4	15.4	15.4	83	11.2	1	3	248	0.00	30.290 
21:10	15.4	15.4	15.4	83	11.2	1	4	248	0.00	30.290 
21:15	15.4	15.4	15.4	83	11.2	1	2	248	0.00	30.286 
21:20	15.4	15.4	15.4	83	11.2	1	2	248	0.00	30.286 
21:25	15.4	15.4	15.4	83	11.2	1	2	248	0.00	30.286 
21:30	15.4	15.4	15.4	83	11.2	1	3	248	0.00	30.285 
21:35	15.6	15.6	15.6	83	11.4	1	3	248	0.00	30.285 
21:40	15.6	15.6	15.6	82	11.1	0	3	248	0.00	30.285 
21:45	15.6	15.6	15.6	82	11.1	0	2	248	0.00	30.279 
21:50	15.6	15.6	15.6	82	11.1	0	2	248	0.00	30.279 
21:55	15.7	15.7	15.7	82	11.2	1	3	248	0.00	30.279 
22:00	15.7	15.7	15.7	82	11.2	0	2	248	0.00	30.274 
22:05	15.7	15.7	15.7	82	11.2	0	2	248	0.00	30.274 
22:10	15.9	15.9	15.9	82	11.4	1	2	248	0.00	30.274 
22:15	15.9	15.9	15.9	82	11.4	0	2	248	0.00	30.266 
22:20	16.1	16.1	16.1	81	11.3	0	2	248	0.00	30.266 
22:25	16.2	16.2	16.2	81	11.4	0	2	248	0.00	30.266 
22:30	16.4	16.4	16.4	81	11.6	0	2	248	0.00	30.264 
22:35	16.5	16.5	16.5	81	11.7	1	3	248	0.00	30.264 
22:40	16.7	16.7	16.7	81	11.9	0	2	248	0.00	30.264 
22:45	16.9	16.9	16.9	80	11.8	1	2	248	0.00	30.264 
22:50	17.2	17.2	17.2	80	12.1	0	1	248	0.00	30.264 
22:55	17.3	17.3	17.3	79	11.9	1	2	338	0.00	30.264 
23:00	17.7	17.7	17.7	79	12.3	0	2	338	0.00	30.262 
23:05	17.8	17.8	17.8	78	12.1	0	2	338	0.00	30.262 
23:10	18.0	18.0	18.0	78	12.3	1	3	338	0.00	30.262 
23:15	18.1	18.1	18.1	77	12.1	1	3	338	0.00	30.258 
23:20	18.3	18.3	18.3	77	12.3	1	3	292	0.00	30.258 
23:25	18.4	18.4	18.4	77	12.4	0	2	292	0.00	30.258 
23:30	18.6	18.6	18.6	77	12.6	1	3	292	0.00	30.251 
23:35	18.8	18.8	18.8	76	12.5	1	7	270	0.00	30.251 
23:40	19.1	19.1	19.1	76	12.8	1	3	270	0.00	30.251 
23:45	19.2	19.2	19.2	75	12.6	1	4	315	0.00	30.242 
23:50	19.5	19.5	19.5	74	12.6	1	4	338	0.00	30.242 
23:55	19.7	19.7	19.7	74	12.8	1	6	315	0.00	30.242 

CoCoRaHS
IN-AL-39
A2 Web Hosting
Creative Commons License
GoDaddy
search engine by freefind advanced

loaded 2018-11-16 10:58:24 • last modified 2010-11-18 10:43:29
Privacy PolicyDisclaimer
• wx.awcolley.com is powered by PmWiki v.2002016 •
• all content (unless otherwise noted) © 2018 A W Colley